createdAt,value
2019-02-10T00:00:15.115Z,989.6
2019-02-10T00:01:15.840Z,989.6
2019-02-10T00:02:16.808Z,989.6
2019-02-10T00:03:17.565Z,989.5
2019-02-10T00:04:18.278Z,989.6
2019-02-10T00:05:18.999Z,989.5
2019-02-10T00:06:24.805Z,989.5
2019-02-10T00:07:20.422Z,989.5
2019-02-10T00:08:21.124Z,989.5
2019-02-10T00:09:21.834Z,989.5
2019-02-10T00:10:22.552Z,989.5
2019-02-10T00:11:23.270Z,989.4
2019-02-10T00:12:23.988Z,989.4
2019-02-10T00:13:24.766Z,989.4
2019-02-10T00:14:25.465Z,989.3
2019-02-10T00:15:26.175Z,989.3
2019-02-10T00:16:26.882Z,989.3
2019-02-10T00:17:27.886Z,989.3
2019-02-10T00:18:28.917Z,989.3
2019-02-10T00:19:29.707Z,989.3
2019-02-10T00:20:30.448Z,989.3
2019-02-10T00:21:31.155Z,989.3
2019-02-10T00:22:31.883Z,989.3
2019-02-10T00:23:33.166Z,989.3
2019-02-10T00:24:33.867Z,989.1
2019-02-10T00:25:34.784Z,989.2
2019-02-10T00:26:35.491Z,989.2
2019-02-10T00:27:36.199Z,989.2
2019-02-10T00:28:36.907Z,989.1
2019-02-10T00:29:37.621Z,989.1
2019-02-10T00:30:38.325Z,989.1
2019-02-10T00:31:39.140Z,989.1
2019-02-10T00:32:39.852Z,989.1
2019-02-10T00:33:40.558Z,989.1
2019-02-10T00:34:41.268Z,989.1
2019-02-10T00:35:41.976Z,989.1
2019-02-10T00:36:42.688Z,989.0
2019-02-10T00:37:43.397Z,989.1
2019-02-10T00:38:44.108Z,989.0
2019-02-10T00:39:44.822Z,989.0
2019-02-10T00:40:45.533Z,989.0
2019-02-10T00:41:46.243Z,988.9
2019-02-10T00:42:46.951Z,988.9
2019-02-10T00:43:47.713Z,988.9
2019-02-10T00:44:48.433Z,988.9
2019-02-10T00:45:49.144Z,988.8
2019-02-10T00:46:49.857Z,988.8
2019-02-10T00:47:50.567Z,988.8
2019-02-10T00:48:51.287Z,988.8
2019-02-10T00:49:52.048Z,988.8
2019-02-10T00:50:52.767Z,988.8
2019-02-10T00:51:53.470Z,988.8
2019-02-10T00:52:54.181Z,988.7
2019-02-10T00:53:54.884Z,988.8
2019-02-10T00:54:55.706Z,988.7
2019-02-10T00:55:56.423Z,988.7
2019-02-10T00:56:57.129Z,988.6
2019-02-10T00:57:58.525Z,988.6
2019-02-10T00:58:59.234Z,988.6
2019-02-10T01:00:00.185Z,988.6
2019-02-10T01:01:01.524Z,988.6
2019-02-10T01:02:04.176Z,988.6
2019-02-10T01:03:05.457Z,988.6
2019-02-10T01:04:06.163Z,988.7
2019-02-10T01:05:07.042Z,988.6
2019-02-10T01:06:07.750Z,988.6
2019-02-10T01:07:08.464Z,988.6
2019-02-10T01:08:09.180Z,988.6
2019-02-10T01:09:09.902Z,988.6
2019-02-10T01:10:10.618Z,988.6
2019-02-10T01:11:11.582Z,988.6
2019-02-10T01:12:12.296Z,988.6
2019-02-10T01:13:13.011Z,988.6
2019-02-10T01:14:13.719Z,988.5
2019-02-10T01:15:14.484Z,988.5
2019-02-10T01:16:15.226Z,988.5
2019-02-10T01:17:15.947Z,988.6
2019-02-10T01:18:16.658Z,988.5
2019-02-10T01:19:17.373Z,988.6
2019-02-10T01:20:18.080Z,988.6
2019-02-10T01:21:18.800Z,988.6
2019-02-10T01:22:19.507Z,988.6
2019-02-10T01:23:20.223Z,988.5
2019-02-10T01:24:20.932Z,988.6
2019-02-10T01:25:21.898Z,988.6
2019-02-10T01:26:22.709Z,988.5
2019-02-10T01:27:23.423Z,988.5
2019-02-10T01:28:24.144Z,988.5
2019-02-10T01:29:24.865Z,988.5
2019-02-10T01:30:25.577Z,988.5
2019-02-10T01:31:26.285Z,988.5
2019-02-10T01:32:27.046Z,988.4
2019-02-10T01:33:27.767Z,988.5
2019-02-10T01:34:28.477Z,988.4
2019-02-10T01:35:29.198Z,988.4
2019-02-10T01:36:29.912Z,988.4
2019-02-10T01:37:30.674Z,988.4
2019-02-10T01:38:31.394Z,988.4
2019-02-10T01:39:32.115Z,988.4
2019-02-10T01:40:32.824Z,988.4
2019-02-10T01:41:33.546Z,988.3
2019-02-10T01:42:34.269Z,988.3
2019-02-10T01:43:34.984Z,988.2
2019-02-10T01:44:35.694Z,988.2
2019-02-10T01:45:36.411Z,988.1
2019-02-10T01:46:37.117Z,988.1
2019-02-10T01:47:37.840Z,988.1
2019-02-10T01:48:38.547Z,988.1
2019-02-10T01:49:39.326Z,988.0
2019-02-10T01:50:40.041Z,988.0
2019-02-10T01:51:40.752Z,987.9
2019-02-10T01:52:41.471Z,988.0
2019-02-10T01:53:42.198Z,987.9
2019-02-10T01:54:42.909Z,987.9
2019-02-10T01:55:43.615Z,987.8
2019-02-10T01:56:44.347Z,987.8
2019-02-10T01:57:45.057Z,987.8
2019-02-10T01:58:46.020Z,987.8
2019-02-10T01:59:46.734Z,987.8
2019-02-10T02:00:47.452Z,987.7
2019-02-10T02:01:48.161Z,987.6
2019-02-10T02:02:48.883Z,987.6
2019-02-10T02:03:49.603Z,987.6
2019-02-10T02:04:50.415Z,987.6
2019-02-10T02:05:51.127Z,987.6
2019-02-10T02:06:57.706Z,987.6
2019-02-10T02:07:52.812Z,987.6
2019-02-10T02:08:53.765Z,987.6
2019-02-10T02:09:54.466Z,987.6
2019-02-10T02:10:55.185Z,987.4
2019-02-10T02:11:55.890Z,987.4
2019-02-10T02:12:56.627Z,987.5
2019-02-10T02:13:57.336Z,987.4
2019-02-10T02:14:58.051Z,987.4
2019-02-10T02:15:58.752Z,987.3
2019-02-10T02:16:59.472Z,987.3
2019-02-10T02:18:00.235Z,987.2
2019-02-10T02:19:00.946Z,987.3
2019-02-10T02:20:01.666Z,987.2
2019-02-10T02:21:02.378Z,987.2
2019-02-10T02:22:03.092Z,987.2
2019-02-10T02:23:04.103Z,987.2
2019-02-10T02:24:04.810Z,987.1
2019-02-10T02:25:05.786Z,987.1
2019-02-10T02:26:06.505Z,987.0
2019-02-10T02:27:07.222Z,987.1
2019-02-10T02:28:08.187Z,986.9
2019-02-10T02:29:08.945Z,987.0
2019-02-10T02:30:09.666Z,987.0
2019-02-10T02:31:10.374Z,987.0
2019-02-10T02:32:11.087Z,987.0
2019-02-10T02:33:11.802Z,986.9
2019-02-10T02:34:12.523Z,986.9
2019-02-10T02:35:13.226Z,986.9
2019-02-10T02:36:13.943Z,986.9
2019-02-10T02:37:14.665Z,986.8
2019-02-10T02:38:15.376Z,986.8
2019-02-10T02:39:16.090Z,986.8
2019-02-10T02:40:17.048Z,986.8
2019-02-10T02:41:17.751Z,986.8
2019-02-10T02:42:18.469Z,986.8
2019-02-10T02:43:19.190Z,986.8
2019-02-10T02:44:20.052Z,986.8
2019-02-10T02:45:20.773Z,986.8
2019-02-10T02:46:21.483Z,986.8
2019-02-10T02:47:22.190Z,986.7
2019-02-10T02:48:22.909Z,986.7
2019-02-10T02:49:23.615Z,986.7
2019-02-10T02:50:24.584Z,986.7
2019-02-10T02:51:25.300Z,986.6
2019-02-10T02:52:26.014Z,986.6
2019-02-10T02:53:26.726Z,986.6
2019-02-10T02:54:27.456Z,986.6
2019-02-10T02:55:28.171Z,986.6
2019-02-10T02:56:28.896Z,986.5
2019-02-10T02:57:29.694Z,986.5
2019-02-10T02:58:30.313Z,986.5
2019-02-10T02:59:31.019Z,986.5
2019-02-10T03:00:31.731Z,986.5
2019-02-10T03:01:32.489Z,986.4
2019-02-10T03:02:33.210Z,986.4
2019-02-10T03:03:34.181Z,986.4
2019-02-10T03:04:34.891Z,986.3
2019-02-10T03:05:35.857Z,986.2
2019-02-10T03:06:36.569Z,986.2
2019-02-10T03:07:37.297Z,986.2
2019-02-10T03:08:38.005Z,986.2
2019-02-10T03:09:38.959Z,986.2
2019-02-10T03:10:39.689Z,986.2
2019-02-10T03:11:40.402Z,986.1
2019-02-10T03:12:41.116Z,986.2
2019-02-10T03:13:41.830Z,986.1
2019-02-10T03:14:42.797Z,986.1
2019-02-10T03:15:43.511Z,986.0
2019-02-10T03:16:44.224Z,986.0
2019-02-10T03:17:44.942Z,986.0
2019-02-10T03:18:53.022Z,986.0
2019-02-10T03:19:46.414Z,986.0
2019-02-10T03:20:47.130Z,986.0
2019-02-10T03:21:47.838Z,986.0
2019-02-10T03:22:48.560Z,986.0
2019-02-10T03:23:49.279Z,986.0
2019-02-10T03:24:50.066Z,986.0
2019-02-10T03:25:50.758Z,985.9
2019-02-10T03:26:51.463Z,985.9
2019-02-10T03:27:52.192Z,985.9
2019-02-10T03:28:52.915Z,985.9
2019-02-10T03:29:53.668Z,985.8
2019-02-10T03:30:54.626Z,985.8
2019-02-10T03:31:55.346Z,985.8
2019-02-10T03:32:56.051Z,985.7
2019-02-10T03:33:56.768Z,985.7
2019-02-10T03:34:57.468Z,985.7
2019-02-10T03:35:58.181Z,985.7
2019-02-10T03:36:58.889Z,985.6
2019-02-10T03:37:59.602Z,985.6
2019-02-10T03:39:00.564Z,985.6
2019-02-10T03:40:01.263Z,985.6
2019-02-10T03:41:01.977Z,985.6
2019-02-10T03:42:02.685Z,985.6
2019-02-10T03:43:03.403Z,985.5
2019-02-10T03:44:04.120Z,985.5
2019-02-10T03:45:04.829Z,985.4
2019-02-10T03:46:05.788Z,985.4
2019-02-10T03:47:06.508Z,985.5
2019-02-10T03:48:07.229Z,985.4
2019-02-10T03:49:07.962Z,985.3
2019-02-10T03:50:08.646Z,985.3
2019-02-10T03:51:09.609Z,985.4
2019-02-10T03:52:10.327Z,985.3
2019-02-10T03:53:11.028Z,985.2
2019-02-10T03:54:11.745Z,985.3
2019-02-10T03:55:12.460Z,985.2
2019-02-10T03:56:13.172Z,985.2
2019-02-10T03:57:13.880Z,985.1
2019-02-10T03:58:14.585Z,985.2
2019-02-10T03:59:15.304Z,985.1
2019-02-10T04:00:16.025Z,985.1
2019-02-10T04:01:16.761Z,985.0
2019-02-10T04:02:17.439Z,985.0
2019-02-10T04:03:18.154Z,984.9
2019-02-10T04:04:18.871Z,984.9
2019-02-10T04:05:19.585Z,984.9
2019-02-10T04:06:20.308Z,984.8
2019-02-10T04:07:21.022Z,984.8
2019-02-10T04:08:21.747Z,984.7
2019-02-10T04:09:22.461Z,984.8
2019-02-10T04:10:23.168Z,984.7
2019-02-10T04:11:24.128Z,984.7
2019-02-10T04:12:24.937Z,984.6
2019-02-10T04:13:25.646Z,984.5
2019-02-10T04:14:26.357Z,984.5
2019-02-10T04:15:27.066Z,984.6
2019-02-10T04:16:27.776Z,984.5
2019-02-10T04:17:28.487Z,984.5
2019-02-10T04:18:29.190Z,984.4
2019-02-10T04:19:29.905Z,984.4
2019-02-10T04:20:30.609Z,984.3
2019-02-10T04:21:31.478Z,984.3
2019-02-10T04:22:32.189Z,984.2
2019-02-10T04:23:32.904Z,984.3
2019-02-10T04:24:33.612Z,984.3
2019-02-10T04:25:34.334Z,984.2
2019-02-10T04:26:35.142Z,984.2
2019-02-10T04:27:35.870Z,984.2
2019-02-10T04:28:36.582Z,984.2
2019-02-10T04:29:37.321Z,984.2
2019-02-10T04:30:38.017Z,984.2
2019-02-10T04:31:38.775Z,984.3
2019-02-10T04:32:39.490Z,984.3
2019-02-10T04:33:40.201Z,984.4
2019-02-10T04:34:40.919Z,984.4
2019-02-10T04:35:41.638Z,984.4
2019-02-10T04:36:42.341Z,984.4
2019-02-10T04:37:46.094Z,984.3
2019-02-10T04:38:44.030Z,984.3
2019-02-10T04:39:44.747Z,984.2
2019-02-10T04:40:45.460Z,984.1
2019-02-10T04:41:46.170Z,984.1
2019-02-10T04:42:46.886Z,984.0
2019-02-10T04:43:47.609Z,984.0
2019-02-10T04:44:48.917Z,984.0
2019-02-10T04:45:49.027Z,983.9
2019-02-10T04:46:49.733Z,983.9
2019-02-10T04:47:50.459Z,983.9
2019-02-10T04:48:51.155Z,983.9
2019-02-10T04:49:51.873Z,983.8
2019-02-10T04:50:52.597Z,983.8
2019-02-10T04:51:53.307Z,983.8
2019-02-10T04:52:54.028Z,983.7
2019-02-10T04:53:54.782Z,983.7
2019-02-10T04:54:55.493Z,983.6
2019-02-10T04:55:56.200Z,983.6
2019-02-10T04:56:56.924Z,983.5
2019-02-10T04:57:57.638Z,983.5
2019-02-10T04:58:58.354Z,983.5
2019-02-10T04:59:59.076Z,983.5
2019-02-10T05:00:59.804Z,983.4
2019-02-10T05:02:00.524Z,983.4
2019-02-10T05:03:01.243Z,983.3
2019-02-10T05:04:01.952Z,983.3
2019-02-10T05:05:02.668Z,983.3
2019-02-10T05:06:03.373Z,983.3
2019-02-10T05:07:04.337Z,983.3
2019-02-10T05:08:05.049Z,983.3
2019-02-10T05:09:05.769Z,983.2
2019-02-10T05:10:06.486Z,983.2
2019-02-10T05:11:07.199Z,983.1
2019-02-10T05:12:07.916Z,983.1
2019-02-10T05:13:08.628Z,983.0
2019-02-10T05:14:09.590Z,983.1
2019-02-10T05:15:10.304Z,983.0
2019-02-10T05:16:11.017Z,983.1
2019-02-10T05:17:11.732Z,983.0
2019-02-10T05:18:12.433Z,983.0
2019-02-10T05:19:13.140Z,983.0
2019-02-10T05:20:13.891Z,983.0
2019-02-10T05:21:14.560Z,983.0
2019-02-10T05:22:15.369Z,982.9
2019-02-10T05:23:16.075Z,982.9
2019-02-10T05:24:16.779Z,982.8
2019-02-10T05:25:17.524Z,982.8
2019-02-10T05:26:18.206Z,982.7
2019-02-10T05:27:18.978Z,982.7
2019-02-10T05:28:19.704Z,982.8
2019-02-10T05:29:20.419Z,982.7
2019-02-10T05:30:21.141Z,982.7
2019-02-10T05:31:21.845Z,982.6
2019-02-10T05:32:22.628Z,982.6
2019-02-10T05:33:23.356Z,982.6
2019-02-10T05:34:24.067Z,982.6
2019-02-10T05:35:24.768Z,982.6
2019-02-10T05:36:25.486Z,982.6
2019-02-10T05:37:26.187Z,982.5
2019-02-10T05:38:26.915Z,982.4
2019-02-10T05:39:27.619Z,982.4
2019-02-10T05:40:28.592Z,982.3
2019-02-10T05:41:29.293Z,982.4
2019-02-10T05:42:30.248Z,982.4
2019-02-10T05:43:30.976Z,982.3
2019-02-10T05:44:31.680Z,982.3
2019-02-10T05:45:32.388Z,982.2
2019-02-10T05:46:33.104Z,982.4
2019-02-10T05:47:33.813Z,982.2
2019-02-10T05:48:34.524Z,982.1
2019-02-10T05:49:35.237Z,982.1
2019-02-10T05:50:35.940Z,982.0
2019-02-10T05:51:36.654Z,982.0
2019-02-10T05:52:37.370Z,982.0
2019-02-10T05:53:38.076Z,982.0
2019-02-10T05:54:40.732Z,982.0
2019-02-10T05:55:39.500Z,981.9
2019-02-10T05:56:40.460Z,981.8
2019-02-10T05:57:41.183Z,981.8
2019-02-10T05:58:41.883Z,981.7
2019-02-10T05:59:42.589Z,981.7
2019-02-10T06:00:43.296Z,981.6
2019-02-10T06:01:44.005Z,981.6
2019-02-10T06:02:44.704Z,981.6
2019-02-10T06:03:45.520Z,981.6
2019-02-10T06:04:46.215Z,981.5
2019-02-10T06:05:46.931Z,981.5
2019-02-10T06:06:47.631Z,981.4
2019-02-10T06:07:48.344Z,981.4
2019-02-10T06:08:49.145Z,981.3
2019-02-10T06:09:49.852Z,981.3
2019-02-10T06:10:50.805Z,981.3
2019-02-10T06:11:51.507Z,981.2
2019-02-10T06:12:52.236Z,981.2
2019-02-10T06:13:53.023Z,981.2
2019-02-10T06:14:53.705Z,981.2
2019-02-10T06:15:54.665Z,981.1
2019-02-10T06:16:55.372Z,981.0
2019-02-10T06:17:56.081Z,981.0
2019-02-10T06:18:56.789Z,980.9
2019-02-10T06:19:57.502Z,980.8
2019-02-10T06:20:58.208Z,980.9
2019-02-10T06:21:58.923Z,980.8
2019-02-10T06:22:59.623Z,980.8
2019-02-10T06:24:00.386Z,980.8
2019-02-10T06:25:01.116Z,980.6
2019-02-10T06:26:01.821Z,980.7
2019-02-10T06:27:02.772Z,980.6
2019-02-10T06:28:03.480Z,980.7
2019-02-10T06:29:04.189Z,980.6
2019-02-10T06:30:04.901Z,980.6
2019-02-10T06:31:05.610Z,980.6
2019-02-10T06:32:06.323Z,980.5
2019-02-10T06:33:07.029Z,980.4
2019-02-10T06:34:07.743Z,980.3
2019-02-10T06:35:08.450Z,980.4
2019-02-10T06:36:09.158Z,980.2
2019-02-10T06:37:09.865Z,980.1
2019-02-10T06:38:10.580Z,980.1
2019-02-10T06:39:11.537Z,980.1
2019-02-10T06:40:12.261Z,980.2
2019-02-10T06:41:13.021Z,980.3
2019-02-10T06:42:13.722Z,980.1
2019-02-10T06:43:14.432Z,980.0
2019-02-10T06:44:15.141Z,980.1
2019-02-10T06:45:15.865Z,980.1
2019-02-10T06:46:16.625Z,980.0
2019-02-10T06:47:17.334Z,980.0
2019-02-10T06:48:18.031Z,979.9
2019-02-10T06:49:18.742Z,979.8
2019-02-10T06:50:19.445Z,979.8
2019-02-10T06:51:20.216Z,979.7
2019-02-10T06:52:20.951Z,979.6
2019-02-10T06:53:21.658Z,979.6
2019-02-10T06:54:22.378Z,979.5
2019-02-10T06:55:23.081Z,979.5
2019-02-10T06:56:23.793Z,979.5
2019-02-10T06:57:24.501Z,979.4
2019-02-10T06:58:25.210Z,979.4
2019-02-10T06:59:25.926Z,979.4
2019-02-10T07:00:26.692Z,979.3
2019-02-10T07:01:27.414Z,979.3
2019-02-10T07:02:28.106Z,979.3
2019-02-10T07:03:28.833Z,979.3
2019-02-10T07:04:29.535Z,979.2
2019-02-10T07:05:30.302Z,979.2
2019-02-10T07:06:31.014Z,979.2
2019-02-10T07:07:31.981Z,979.1
2019-02-10T07:08:32.695Z,979.1
2019-02-10T07:09:33.406Z,979.0
2019-02-10T07:10:34.120Z,979.0
2019-02-10T07:11:34.828Z,979.0
2019-02-10T07:12:35.541Z,979.0
2019-02-10T07:13:36.249Z,978.9
2019-02-10T07:14:36.962Z,978.9
2019-02-10T07:15:37.683Z,978.8
2019-02-10T07:16:38.458Z,978.9
2019-02-10T07:17:39.162Z,978.8
2019-02-10T07:18:39.873Z,978.8
2019-02-10T07:19:40.585Z,978.7
2019-02-10T07:20:41.291Z,978.7
2019-02-10T07:21:42.026Z,978.7
2019-02-10T07:22:42.743Z,978.6
2019-02-10T07:23:43.458Z,978.5
2019-02-10T07:24:44.171Z,978.6
2019-02-10T07:25:44.884Z,978.5
2019-02-10T07:26:45.837Z,978.4
2019-02-10T07:27:46.576Z,978.4
2019-02-10T07:28:47.281Z,978.4
2019-02-10T07:29:47.980Z,978.4
2019-02-10T07:30:48.687Z,978.3
2019-02-10T07:31:49.415Z,978.3
2019-02-10T07:32:50.120Z,978.3
2019-02-10T07:33:50.832Z,978.3
2019-02-10T07:34:51.549Z,978.3
2019-02-10T07:35:52.264Z,978.2
2019-02-10T07:36:53.217Z,978.3
2019-02-10T07:37:53.931Z,978.3
2019-02-10T07:38:54.890Z,978.2
2019-02-10T07:39:55.599Z,978.1
2019-02-10T07:40:56.561Z,978.1
2019-02-10T07:41:57.279Z,978.1
2019-02-10T07:42:57.987Z,978.0
2019-02-10T07:43:58.694Z,978.0
2019-02-10T07:44:59.415Z,978.0
2019-02-10T07:46:00.122Z,977.9
2019-02-10T07:47:00.836Z,977.9
2019-02-10T07:48:01.547Z,977.9
2019-02-10T07:49:02.264Z,977.9
2019-02-10T07:50:02.980Z,977.9
2019-02-10T07:51:03.700Z,977.9
2019-02-10T07:52:04.433Z,977.9
2019-02-10T07:53:05.140Z,977.9
2019-02-10T07:54:05.872Z,977.9
2019-02-10T07:55:06.578Z,977.8
2019-02-10T07:56:07.343Z,977.8
2019-02-10T07:57:08.058Z,977.8
2019-02-10T07:58:08.805Z,977.7
2019-02-10T07:59:09.515Z,977.7
2019-02-10T08:00:10.220Z,977.7
2019-02-10T08:01:11.044Z,977.7
2019-02-10T08:02:11.754Z,977.6
2019-02-10T08:03:12.468Z,977.6
2019-02-10T08:04:13.196Z,977.5
2019-02-10T08:05:13.915Z,977.5
2019-02-10T08:06:14.624Z,977.5
2019-02-10T08:07:15.347Z,977.4
2019-02-10T08:08:16.119Z,977.4
2019-02-10T08:09:16.825Z,977.4
2019-02-10T08:10:17.548Z,977.4
2019-02-10T08:11:18.272Z,977.4
2019-02-10T08:12:18.982Z,977.3
2019-02-10T08:13:19.697Z,977.2
2019-02-10T08:14:20.416Z,977.3
2019-02-10T08:15:21.126Z,977.3
2019-02-10T08:16:21.853Z,977.2
2019-02-10T08:17:22.565Z,977.1
2019-02-10T08:18:23.320Z,977.1
2019-02-10T08:19:24.039Z,977.1
2019-02-10T08:20:25.011Z,977.1
2019-02-10T08:21:25.721Z,977.0
2019-02-10T08:22:26.445Z,977.0
2019-02-10T08:23:27.157Z,977.0
2019-02-10T08:24:27.980Z,976.9
2019-02-10T08:25:28.713Z,976.9
2019-02-10T08:26:29.407Z,976.9
2019-02-10T08:27:30.126Z,976.8
2019-02-10T08:28:30.848Z,976.9
2019-02-10T08:29:31.710Z,976.8
2019-02-10T08:30:32.423Z,976.7
2019-02-10T08:31:33.133Z,976.6
2019-02-10T08:32:33.854Z,976.5
2019-02-10T08:33:34.574Z,976.5
2019-02-10T08:34:35.288Z,976.5
2019-02-10T08:35:36.012Z,976.4
2019-02-10T08:36:36.718Z,976.4
2019-02-10T08:37:37.456Z,976.4
2019-02-10T08:38:38.298Z,976.3
2019-02-10T08:39:38.880Z,976.3
2019-02-10T08:40:39.605Z,976.3
2019-02-10T08:41:40.319Z,976.3
2019-02-10T08:42:41.029Z,976.3
2019-02-10T08:43:41.739Z,976.2
2019-02-10T08:44:42.454Z,976.2
2019-02-10T08:45:43.173Z,976.1
2019-02-10T08:46:43.921Z,976.1
2019-02-10T08:47:44.627Z,976.1
2019-02-10T08:48:45.592Z,976.1
2019-02-10T08:49:46.328Z,976.1
2019-02-10T08:50:47.039Z,976.0
2019-02-10T08:51:47.747Z,976.0
2019-02-10T08:52:51.985Z,975.9
2019-02-10T08:53:49.176Z,975.9
2019-02-10T08:54:50.146Z,975.9
2019-02-10T08:55:50.872Z,975.8
2019-02-10T08:56:51.585Z,975.8
2019-02-10T08:57:52.302Z,975.7
2019-02-10T08:58:53.019Z,975.8
2019-02-10T08:59:53.735Z,975.6
2019-02-10T09:00:54.457Z,975.6
2019-02-10T09:01:55.163Z,975.6
2019-02-10T09:02:55.885Z,975.5
2019-02-10T09:03:56.745Z,975.5
2019-02-10T09:04:57.460Z,975.5
2019-02-10T09:05:58.171Z,975.6
2019-02-10T09:06:59.137Z,975.5
2019-02-10T09:07:59.862Z,975.5
2019-02-10T09:09:02.650Z,975.4
2019-02-10T09:10:01.342Z,975.3
2019-02-10T09:11:02.063Z,975.3
2019-02-10T09:12:02.790Z,975.2
2019-02-10T09:13:03.500Z,975.3
2019-02-10T09:14:04.216Z,975.3
2019-02-10T09:15:05.232Z,975.4
2019-02-10T09:16:05.955Z,975.3
2019-02-10T09:17:06.652Z,975.2
2019-02-10T09:18:07.377Z,975.2
2019-02-10T09:19:08.092Z,975.1
2019-02-10T09:20:08.810Z,975.2
2019-02-10T09:21:09.518Z,975.1
2019-02-10T09:22:10.234Z,975.0
2019-02-10T09:23:10.941Z,974.9
2019-02-10T09:24:11.658Z,975.0
2019-02-10T09:25:12.528Z,974.8
2019-02-10T09:26:13.243Z,974.9
2019-02-10T09:27:13.957Z,975.0
2019-02-10T09:28:14.676Z,974.9
2019-02-10T09:29:15.402Z,974.9
2019-02-10T09:30:16.162Z,974.9
2019-02-10T09:31:16.883Z,974.8
2019-02-10T09:32:17.596Z,974.8
2019-02-10T09:33:18.302Z,974.7
2019-02-10T09:34:19.025Z,974.8
2019-02-10T09:35:19.807Z,974.8
2019-02-10T09:36:20.516Z,974.8
2019-02-10T09:37:21.230Z,974.7
2019-02-10T09:38:21.946Z,974.7
2019-02-10T09:39:22.667Z,974.8
2019-02-10T09:40:23.486Z,974.8
2019-02-10T09:41:24.443Z,974.8
2019-02-10T09:42:25.153Z,974.7
2019-02-10T09:43:25.875Z,974.7
2019-02-10T09:44:26.599Z,974.7
2019-02-10T09:45:27.322Z,974.6
2019-02-10T09:46:28.037Z,974.6
2019-02-10T09:47:28.752Z,974.6
2019-02-10T09:48:29.473Z,974.6
2019-02-10T09:49:30.188Z,974.6
2019-02-10T09:50:31.154Z,974.5
2019-02-10T09:51:32.110Z,974.6
2019-02-10T09:52:32.824Z,974.6
2019-02-10T09:53:33.543Z,974.5
2019-02-10T09:54:34.247Z,974.6
2019-02-10T09:55:34.959Z,974.6
2019-02-10T09:56:35.673Z,974.5
2019-02-10T09:57:36.396Z,974.5
2019-02-10T09:58:37.221Z,974.6
2019-02-10T09:59:37.937Z,974.6
2019-02-10T10:00:38.669Z,974.6
2019-02-10T10:01:39.376Z,974.6
2019-02-10T10:02:40.098Z,974.4
2019-02-10T10:03:40.822Z,974.4
2019-02-10T10:04:41.548Z,974.3
2019-02-10T10:05:42.253Z,974.3
2019-02-10T10:06:42.975Z,974.3
2019-02-10T10:07:43.693Z,974.2
2019-02-10T10:08:44.405Z,974.2
2019-02-10T10:09:45.109Z,974.2
2019-02-10T10:10:45.831Z,974.2
2019-02-10T10:11:46.544Z,974.2
2019-02-10T10:12:47.270Z,974.2
2019-02-10T10:13:47.985Z,974.3
2019-02-10T10:14:48.699Z,974.4
2019-02-10T10:15:49.468Z,974.3
2019-02-10T10:16:50.195Z,974.4
2019-02-10T10:17:50.914Z,974.4
2019-02-10T10:18:51.631Z,974.4
2019-02-10T10:19:52.344Z,974.4
2019-02-10T10:20:53.108Z,974.5
2019-02-10T10:21:53.822Z,974.4
2019-02-10T10:22:54.535Z,974.4
2019-02-10T10:23:55.270Z,974.5
2019-02-10T10:24:55.992Z,974.4
2019-02-10T10:25:56.708Z,974.3
2019-02-10T10:26:57.419Z,974.4
2019-02-10T10:27:58.138Z,974.3
2019-02-10T10:28:58.855Z,974.3
2019-02-10T10:29:59.572Z,974.3
2019-02-10T10:31:00.341Z,974.4
2019-02-10T10:32:01.049Z,974.2
2019-02-10T10:33:01.762Z,974.2
2019-02-10T10:34:02.478Z,974.2
2019-02-10T10:35:03.198Z,974.3
2019-02-10T10:36:03.906Z,974.3
2019-02-10T10:37:04.625Z,974.2
2019-02-10T10:38:05.400Z,974.1
2019-02-10T10:39:06.108Z,974.1
2019-02-10T10:40:06.827Z,974.2
2019-02-10T10:41:07.537Z,974.1
2019-02-10T10:42:08.250Z,974.2
2019-02-10T10:43:08.975Z,974.1
2019-02-10T10:44:09.733Z,974.2
2019-02-10T10:45:10.409Z,974.1
2019-02-10T10:46:11.129Z,974.2
2019-02-10T10:47:11.837Z,974.1
2019-02-10T10:48:12.594Z,974.1
2019-02-10T10:49:13.317Z,974.0
2019-02-10T10:50:14.032Z,974.0
2019-02-10T10:51:14.742Z,974.0
2019-02-10T10:52:15.468Z,973.9
2019-02-10T10:53:16.186Z,973.9
2019-02-10T10:54:16.904Z,973.9
2019-02-10T10:55:17.623Z,973.8
2019-02-10T10:56:18.342Z,973.9
2019-02-10T10:57:19.051Z,973.8
2019-02-10T10:58:19.767Z,973.8
2019-02-10T10:59:20.482Z,973.8
2019-02-10T11:00:21.194Z,973.8
2019-02-10T11:01:25.385Z,973.8
2019-02-10T11:02:22.627Z,973.7
2019-02-10T11:03:23.350Z,973.7
2019-02-10T11:04:24.125Z,973.6
2019-02-10T11:05:24.840Z,973.7
2019-02-10T11:06:25.556Z,973.6
2019-02-10T11:07:26.275Z,973.7
2019-02-10T11:08:26.995Z,973.7
2019-02-10T11:09:35.238Z,973.7
2019-02-10T11:10:28.538Z,973.7
2019-02-10T11:11:29.515Z,973.7
2019-02-10T11:12:30.225Z,973.6
2019-02-10T11:13:30.950Z,973.6
2019-02-10T11:14:31.672Z,973.5
2019-02-10T11:15:32.388Z,973.5
2019-02-10T11:16:33.113Z,973.6
2019-02-10T11:17:33.828Z,973.4
2019-02-10T11:18:34.560Z,973.5
2019-02-10T11:19:35.367Z,973.5
2019-02-10T11:20:36.092Z,973.5
2019-02-10T11:21:36.815Z,973.5
2019-02-10T11:22:37.530Z,973.6
2019-02-10T11:23:38.252Z,973.5
2019-02-10T11:24:38.962Z,973.4
2019-02-10T11:25:39.701Z,973.5
2019-02-10T11:26:40.471Z,973.4
2019-02-10T11:27:41.186Z,973.4
2019-02-10T11:28:41.912Z,973.4
2019-02-10T11:29:42.618Z,973.5
2019-02-10T11:30:43.336Z,973.4
2019-02-10T11:31:44.050Z,973.4
2019-02-10T11:32:44.773Z,973.2
2019-02-10T11:33:45.487Z,973.3
2019-02-10T11:34:46.449Z,973.4
2019-02-10T11:35:46.928Z,973.1
2019-02-10T11:36:47.695Z,973.3
2019-02-10T11:37:48.415Z,973.3
2019-02-10T11:38:49.131Z,973.3
2019-02-10T11:39:50.090Z,973.2
2019-02-10T11:40:50.831Z,973.3
2019-02-10T11:41:51.533Z,973.3
2019-02-10T11:42:52.242Z,973.2
2019-02-10T11:43:52.975Z,973.2
2019-02-10T11:44:53.691Z,973.1
2019-02-10T11:45:54.420Z,973.1
2019-02-10T11:46:55.139Z,973.0
2019-02-10T11:47:55.912Z,973.0
2019-02-10T11:48:56.625Z,973.1
2019-02-10T11:49:57.348Z,973.0
2019-02-10T11:50:58.067Z,973.0
2019-02-10T11:51:58.770Z,972.9
2019-02-10T11:52:59.538Z,973.0
2019-02-10T11:54:00.265Z,972.9
2019-02-10T11:55:00.992Z,972.9
2019-02-10T11:56:01.708Z,972.9
2019-02-10T11:57:02.431Z,972.9
2019-02-10T11:58:03.196Z,972.8
2019-02-10T11:59:03.987Z,972.7
2019-02-10T12:00:05.147Z,972.8
2019-02-10T12:01:06.204Z,972.8
2019-02-10T12:02:07.540Z,972.7
2019-02-10T12:03:08.738Z,972.7
2019-02-10T12:04:10.714Z,972.8
2019-02-10T12:05:11.571Z,972.9
2019-02-10T12:06:12.366Z,972.8
2019-02-10T12:07:13.769Z,972.7
2019-02-10T12:08:14.935Z,972.7
2019-02-10T12:09:15.738Z,972.6
2019-02-10T12:10:16.603Z,972.6
2019-02-10T12:11:17.509Z,972.6
2019-02-10T12:12:18.222Z,972.5
2019-02-10T12:13:19.547Z,972.6
2019-02-10T12:14:20.306Z,972.4
2019-02-10T12:15:21.811Z,972.6
2019-02-10T12:16:23.090Z,972.5
2019-02-10T12:17:23.895Z,972.5
2019-02-10T12:18:24.700Z,972.5
2019-02-10T12:19:25.910Z,972.4
2019-02-10T12:20:26.683Z,972.4
2019-02-10T12:21:28.409Z,972.4
2019-02-10T12:22:29.328Z,972.2
2019-02-10T12:23:31.088Z,972.4
2019-02-10T12:24:32.129Z,972.4
2019-02-10T12:25:33.340Z,972.3
2019-02-10T12:26:34.234Z,972.2
2019-02-10T12:27:35.119Z,972.3
2019-02-10T12:28:36.098Z,972.3
2019-02-10T12:29:37.136Z,972.3
2019-02-10T12:30:37.881Z,972.3
2019-02-10T12:31:38.677Z,972.3
2019-02-10T12:32:39.579Z,972.2
2019-02-10T12:33:40.368Z,972.2
2019-02-10T12:34:41.170Z,972.1
2019-02-10T12:35:42.178Z,972.1
2019-02-10T12:36:43.180Z,972.1
2019-02-10T12:37:44.418Z,972.2
2019-02-10T12:38:45.147Z,972.1
2019-02-10T12:39:46.272Z,972.2
2019-02-10T12:40:48.347Z,972.2
2019-02-10T12:41:47.940Z,972.1
2019-02-10T12:42:48.743Z,972.0
2019-02-10T12:43:49.945Z,972.1
2019-02-10T12:44:50.720Z,972.1
2019-02-10T12:45:51.570Z,972.0
2019-02-10T12:46:52.814Z,972.1
2019-02-10T12:47:53.886Z,972.1
2019-02-10T12:48:54.643Z,972.0
2019-02-10T12:49:55.754Z,972.1
2019-02-10T12:50:56.565Z,972.1
2019-02-10T12:51:57.385Z,972.0
2019-02-10T12:52:59.358Z,972.1
2019-02-10T12:54:00.845Z,972.0
2019-02-10T12:55:01.546Z,972.1
2019-02-10T12:56:02.294Z,972.0
2019-02-10T12:57:03.145Z,971.9
2019-02-10T12:58:03.921Z,971.9
2019-02-10T12:59:04.675Z,971.9
2019-02-10T13:00:05.597Z,972.0
2019-02-10T13:01:06.786Z,972.0
2019-02-10T13:02:07.858Z,971.9